sensor_id;sensor_type;location;lat;lon;timestamp;P1;durP1;ratioP1;P2;durP2;ratioP2
67902;SDS011;54708;43.612;1.568;2023-11-21T00:00:12;10.35;;;3.35;;
67902;SDS011;54708;43.612;1.568;2023-11-21T00:02:40;13.15;;;3.75;;
67902;SDS011;54708;43.612;1.568;2023-11-21T00:05:07;11.40;;;3.40;;
67902;SDS011;54708;43.612;1.568;2023-11-21T00:07:36;18.40;;;4.53;;
67902;SDS011;54708;43.612;1.568;2023-11-21T00:10:02;13.73;;;2.50;;
67902;SDS011;54708;43.612;1.568;2023-11-21T00:12:28;15.18;;;4.38;;
67902;SDS011;54708;43.612;1.568;2023-11-21T00:14:54;10.02;;;3.45;;
67902;SDS011;54708;43.612;1.568;2023-11-21T00:17:20;11.45;;;3.47;;
67902;SDS011;54708;43.612;1.568;2023-11-21T00:19:45;20.00;;;5.25;;
67902;SDS011;54708;43.612;1.568;2023-11-21T00:22:10;24.25;;;4.57;;
67902;SDS011;54708;43.612;1.568;2023-11-21T00:24:36;12.60;;;3.92;;
67902;SDS011;54708;43.612;1.568;2023-11-21T00:27:01;15.43;;;2.80;;
67902;SDS011;54708;43.612;1.568;2023-11-21T00:29:27;13.43;;;4.05;;
67902;SDS011;54708;43.612;1.568;2023-11-21T00:31:52;10.52;;;4.07;;
67902;SDS011;54708;43.612;1.568;2023-11-21T00:34:18;10.18;;;3.63;;
67902;SDS011;54708;43.612;1.568;2023-11-21T00:36:44;17.42;;;3.58;;
67902;SDS011;54708;43.612;1.568;2023-11-21T00:39:10;15.10;;;4.57;;
67902;SDS011;54708;43.612;1.568;2023-11-21T00:41:36;11.27;;;3.63;;
67902;SDS011;54708;43.612;1.568;2023-11-21T00:44:02;16.38;;;4.57;;
67902;SDS011;54708;43.612;1.568;2023-11-21T00:46:27;17.10;;;3.38;;
67902;SDS011;54708;43.612;1.568;2023-11-21T00:48:54;15.80;;;3.20;;
67902;SDS011;54708;43.612;1.568;2023-11-21T00:51:20;8.20;;;3.05;;
67902;SDS011;54708;43.612;1.568;2023-11-21T00:53:45;11.77;;;3.13;;
67902;SDS011;54708;43.612;1.568;2023-11-21T00:56:11;13.40;;;4.22;;
67902;SDS011;54708;43.612;1.568;2023-11-21T00:58:37;23.48;;;5.00;;
67902;SDS011;54708;43.612;1.568;2023-11-21T01:01:02;11.27;;;2.90;;
67902;SDS011;54708;43.612;1.568;2023-11-21T01:03:28;10.13;;;2.97;;
67902;SDS011;54708;43.612;1.568;2023-11-21T01:05:53;14.93;;;3.50;;
67902;SDS011;54708;43.612;1.568;2023-11-21T01:08:19;8.32;;;4.40;;
67902;SDS011;54708;43.612;1.568;2023-11-21T01:10:45;11.07;;;3.17;;
67902;SDS011;54708;43.612;1.568;2023-11-21T01:13:10;8.98;;;2.90;;
67902;SDS011;54708;43.612;1.568;2023-11-21T01:15:35;11.73;;;3.08;;
67902;SDS011;54708;43.612;1.568;2023-11-21T01:18:01;15.82;;;3.25;;
67902;SDS011;54708;43.612;1.568;2023-11-21T01:20:26;12.60;;;3.15;;
67902;SDS011;54708;43.612;1.568;2023-11-21T01:22:52;12.80;;;3.40;;
67902;SDS011;54708;43.612;1.568;2023-11-21T01:25:18;10.25;;;3.72;;
67902;SDS011;54708;43.612;1.568;2023-11-21T01:27:44;6.18;;;2.20;;
67902;SDS011;54708;43.612;1.568;2023-11-21T01:30:09;13.25;;;3.33;;
67902;SDS011;54708;43.612;1.568;2023-11-21T01:32:36;15.95;;;2.78;;
67902;SDS011;54708;43.612;1.568;2023-11-21T01:35:02;7.55;;;3.20;;
67902;SDS011;54708;43.612;1.568;2023-11-21T01:37:27;13.25;;;3.20;;
67902;SDS011;54708;43.612;1.568;2023-11-21T01:39:53;12.23;;;3.00;;
67902;SDS011;54708;43.612;1.568;2023-11-21T01:42:20;9.68;;;3.17;;
67902;SDS011;54708;43.612;1.568;2023-11-21T01:44:46;13.50;;;3.78;;
67902;SDS011;54708;43.612;1.568;2023-11-21T01:47:11;6.63;;;2.35;;
67902;SDS011;54708;43.612;1.568;2023-11-21T01:49:37;11.15;;;4.68;;
67902;SDS011;54708;43.612;1.568;2023-11-21T01:52:03;11.93;;;2.90;;
67902;SDS011;54708;43.612;1.568;2023-11-21T01:54:29;8.32;;;3.08;;
67902;SDS011;54708;43.612;1.568;2023-11-21T01:56:58;9.13;;;2.67;;
67902;SDS011;54708;43.612;1.568;2023-11-21T01:59:27;7.32;;;3.10;;
67902;SDS011;54708;43.612;1.568;2023-11-21T02:01:57;10.45;;;2.58;;
67902;SDS011;54708;43.612;1.568;2023-11-21T02:04:22;4.88;;;1.98;;
67902;SDS011;54708;43.612;1.568;2023-11-21T02:06:47;5.05;;;2.22;;
67902;SDS011;54708;43.612;1.568;2023-11-21T02:09:13;11.50;;;2.17;;
67902;SDS011;54708;43.612;1.568;2023-11-21T02:11:40;11.10;;;2.40;;
67902;SDS011;54708;43.612;1.568;2023-11-21T02:14:05;11.05;;;2.28;;
67902;SDS011;54708;43.612;1.568;2023-11-21T02:16:34;7.57;;;1.77;;
67902;SDS011;54708;43.612;1.568;2023-11-21T02:18:59;7.43;;;2.08;;
67902;SDS011;54708;43.612;1.568;2023-11-21T02:21:25;8.02;;;1.55;;
67902;SDS011;54708;43.612;1.568;2023-11-21T02:23:50;10.18;;;2.83;;
67902;SDS011;54708;43.612;1.568;2023-11-21T02:26:16;10.02;;;2.30;;
67902;SDS011;54708;43.612;1.568;2023-11-21T02:28:41;9.18;;;2.28;;
67902;SDS011;54708;43.612;1.568;2023-11-21T02:31:07;12.52;;;2.67;;
67902;SDS011;54708;43.612;1.568;2023-11-21T02:33:33;5.55;;;1.60;;
67902;SDS011;54708;43.612;1.568;2023-11-21T02:35:59;6.30;;;2.17;;
67902;SDS011;54708;43.612;1.568;2023-11-21T02:38:25;12.23;;;2.58;;
67902;SDS011;54708;43.612;1.568;2023-11-21T02:40:51;8.77;;;2.25;;
67902;SDS011;54708;43.612;1.568;2023-11-21T02:43:16;10.30;;;2.33;;
67902;SDS011;54708;43.612;1.568;2023-11-21T02:45:41;10.63;;;2.38;;
67902;SDS011;54708;43.612;1.568;2023-11-21T02:48:07;4.60;;;1.70;;
67902;SDS011;54708;43.612;1.568;2023-11-21T02:50:32;8.40;;;1.90;;
67902;SDS011;54708;43.612;1.568;2023-11-21T02:52:58;12.10;;;1.73;;
67902;SDS011;54708;43.612;1.568;2023-11-21T02:55:25;9.80;;;2.33;;
67902;SDS011;54708;43.612;1.568;2023-11-21T02:57:51;5.35;;;2.03;;
67902;SDS011;54708;43.612;1.568;2023-11-21T03:00:17;6.18;;;1.67;;
67902;SDS011;54708;43.612;1.568;2023-11-21T03:02:43;6.85;;;1.65;;
67902;SDS011;54708;43.612;1.568;2023-11-21T03:05:08;12.98;;;3.08;;
67902;SDS011;54708;43.612;1.568;2023-11-21T03:07:37;15.15;;;3.25;;
67902;SDS011;54708;43.612;1.568;2023-11-21T03:10:03;5.35;;;1.92;;
67902;SDS011;54708;43.612;1.568;2023-11-21T03:12:29;11.02;;;3.20;;
67902;SDS011;54708;43.612;1.568;2023-11-21T03:14:54;8.77;;;2.90;;
67902;SDS011;54708;43.612;1.568;2023-11-21T03:17:20;6.82;;;1.77;;
67902;SDS011;54708;43.612;1.568;2023-11-21T03:19:46;7.90;;;2.33;;
67902;SDS011;54708;43.612;1.568;2023-11-21T03:22:11;4.93;;;2.20;;
67902;SDS011;54708;43.612;1.568;2023-11-21T03:24:36;7.78;;;1.70;;
67902;SDS011;54708;43.612;1.568;2023-11-21T03:27:03;8.68;;;3.03;;
67902;SDS011;54708;43.612;1.568;2023-11-21T03:29:29;6.15;;;1.60;;
67902;SDS011;54708;43.612;1.568;2023-11-21T03:31:54;9.38;;;2.90;;
67902;SDS011;54708;43.612;1.568;2023-11-21T03:34:23;8.23;;;2.78;;
67902;SDS011;54708;43.612;1.568;2023-11-21T03:36:51;7.20;;;2.17;;
67902;SDS011;54708;43.612;1.568;2023-11-21T03:39:16;6.15;;;1.70;;
67902;SDS011;54708;43.612;1.568;2023-11-21T03:41:41;11.18;;;2.00;;
67902;SDS011;54708;43.612;1.568;2023-11-21T03:44:07;9.10;;;1.60;;
67902;SDS011;54708;43.612;1.568;2023-11-21T03:46:32;6.50;;;2.45;;
67902;SDS011;54708;43.612;1.568;2023-11-21T03:48:57;6.78;;;2.63;;
67902;SDS011;54708;43.612;1.568;2023-11-21T03:51:23;7.85;;;2.30;;
67902;SDS011;54708;43.612;1.568;2023-11-21T03:53:48;8.00;;;2.05;;
67902;SDS011;54708;43.612;1.568;2023-11-21T03:56:14;10.02;;;1.63;;
67902;SDS011;54708;43.612;1.568;2023-11-21T03:58:39;6.97;;;1.85;;
67902;SDS011;54708;43.612;1.568;2023-11-21T04:01:05;12.45;;;1.92;;
67902;SDS011;54708;43.612;1.568;2023-11-21T04:03:30;12.98;;;2.30;;
67902;SDS011;54708;43.612;1.568;2023-11-21T04:05:56;10.70;;;3.08;;
67902;SDS011;54708;43.612;1.568;2023-11-21T04:08:22;13.13;;;2.47;;
67902;SDS011;54708;43.612;1.568;2023-11-21T04:10:47;11.30;;;2.92;;
67902;SDS011;54708;43.612;1.568;2023-11-21T04:13:13;9.10;;;1.88;;
67902;SDS011;54708;43.612;1.568;2023-11-21T04:15:38;7.88;;;2.25;;
67902;SDS011;54708;43.612;1.568;2023-11-21T04:18:04;10.20;;;1.80;;
67902;SDS011;54708;43.612;1.568;2023-11-21T04:20:29;11.25;;;2.83;;
67902;SDS011;54708;43.612;1.568;2023-11-21T04:22:55;7.70;;;2.15;;
67902;SDS011;54708;43.612;1.568;2023-11-21T04:25:20;11.48;;;3.72;;
67902;SDS011;54708;43.612;1.568;2023-11-21T04:27:45;8.07;;;2.20;;
67902;SDS011;54708;43.612;1.568;2023-11-21T04:30:11;7.68;;;3.00;;
67902;SDS011;54708;43.612;1.568;2023-11-21T04:32:37;9.10;;;2.45;;
67902;SDS011;54708;43.612;1.568;2023-11-21T04:35:04;8.20;;;1.95;;
67902;SDS011;54708;43.612;1.568;2023-11-21T04:37:30;13.32;;;1.98;;
67902;SDS011;54708;43.612;1.568;2023-11-21T04:39:55;11.60;;;3.05;;
67902;SDS011;54708;43.612;1.568;2023-11-21T04:42:20;7.32;;;2.33;;
67902;SDS011;54708;43.612;1.568;2023-11-21T04:44:46;14.18;;;2.53;;
67902;SDS011;54708;43.612;1.568;2023-11-21T04:47:12;5.50;;;1.83;;
67902;SDS011;54708;43.612;1.568;2023-11-21T04:49:37;12.95;;;3.35;;
67902;SDS011;54708;43.612;1.568;2023-11-21T04:52:02;4.38;;;1.88;;
67902;SDS011;54708;43.612;1.568;2023-11-21T04:54:30;8.13;;;2.72;;
67902;SDS011;54708;43.612;1.568;2023-11-21T04:56:55;9.27;;;2.10;;
67902;SDS011;54708;43.612;1.568;2023-11-21T04:59:21;9.10;;;2.60;;
67902;SDS011;54708;43.612;1.568;2023-11-21T05:01:49;11.60;;;2.03;;
67902;SDS011;54708;43.612;1.568;2023-11-21T05:04:15;9.32;;;2.20;;
67902;SDS011;54708;43.612;1.568;2023-11-21T05:06:40;5.72;;;1.70;;
67902;SDS011;54708;43.612;1.568;2023-11-21T05:09:06;11.02;;;3.22;;
67902;SDS011;54708;43.612;1.568;2023-11-21T05:11:36;5.43;;;2.05;;
67902;SDS011;54708;43.612;1.568;2023-11-21T05:14:02;6.25;;;1.80;;
67902;SDS011;54708;43.612;1.568;2023-11-21T05:16:29;5.30;;;1.70;;
67902;SDS011;54708;43.612;1.568;2023-11-21T05:18:54;9.35;;;2.38;;
67902;SDS011;54708;43.612;1.568;2023-11-21T05:21:25;6.70;;;2.22;;
67902;SDS011;54708;43.612;1.568;2023-11-21T05:23:50;8.30;;;1.70;;
67902;SDS011;54708;43.612;1.568;2023-11-21T05:26:16;18.10;;;2.42;;
67902;SDS011;54708;43.612;1.568;2023-11-21T05:28:41;9.15;;;2.03;;
67902;SDS011;54708;43.612;1.568;2023-11-21T05:31:06;11.60;;;2.75;;
67902;SDS011;54708;43.612;1.568;2023-11-21T05:33:32;7.78;;;2.30;;
67902;SDS011;54708;43.612;1.568;2023-11-21T05:35:58;9.63;;;2.15;;
67902;SDS011;54708;43.612;1.568;2023-11-21T05:38:23;11.57;;;2.00;;
67902;SDS011;54708;43.612;1.568;2023-11-21T05:40:49;6.80;;;1.98;;
67902;SDS011;54708;43.612;1.568;2023-11-21T05:43:14;7.15;;;1.70;;
67902;SDS011;54708;43.612;1.568;2023-11-21T05:45:40;8.32;;;1.88;;
67902;SDS011;54708;43.612;1.568;2023-11-21T05:48:05;7.55;;;1.70;;
67902;SDS011;54708;43.612;1.568;2023-11-21T05:50:31;12.75;;;2.35;;
67902;SDS011;54708;43.612;1.568;2023-11-21T05:52:57;5.40;;;1.65;;
67902;SDS011;54708;43.612;1.568;2023-11-21T05:55:25;11.15;;;2.10;;
67902;SDS011;54708;43.612;1.568;2023-11-21T05:57:51;7.53;;;2.08;;
67902;SDS011;54708;43.612;1.568;2023-11-21T06:00:16;6.40;;;1.80;;
67902;SDS011;54708;43.612;1.568;2023-11-21T06:02:50;12.70;;;1.98;;
67902;SDS011;54708;43.612;1.568;2023-11-21T06:05:18;11.85;;;2.03;;
67902;SDS011;54708;43.612;1.568;2023-11-21T06:07:43;3.75;;;1.92;;
67902;SDS011;54708;43.612;1.568;2023-11-21T06:10:10;8.35;;;1.80;;
67902;SDS011;54708;43.612;1.568;2023-11-21T06:12:37;11.40;;;3.13;;
67902;SDS011;54708;43.612;1.568;2023-11-21T06:15:05;5.18;;;2.60;;
67902;SDS011;54708;43.612;1.568;2023-11-21T06:17:32;10.57;;;2.03;;
67902;SDS011;54708;43.612;1.568;2023-11-21T06:19:58;4.30;;;2.25;;
67902;SDS011;54708;43.612;1.568;2023-11-21T06:22:24;6.95;;;1.50;;
67902;SDS011;54708;43.612;1.568;2023-11-21T06:24:49;6.00;;;1.65;;
67902;SDS011;54708;43.612;1.568;2023-11-21T06:27:14;4.35;;;1.70;;
67902;SDS011;54708;43.612;1.568;2023-11-21T06:29:41;8.20;;;2.83;;
67902;SDS011;54708;43.612;1.568;2023-11-21T06:32:07;10.68;;;2.22;;
67902;SDS011;54708;43.612;1.568;2023-11-21T06:34:33;6.68;;;2.53;;
67902;SDS011;54708;43.612;1.568;2023-11-21T06:36:58;6.75;;;3.45;;
67902;SDS011;54708;43.612;1.568;2023-11-21T06:39:24;7.47;;;1.77;;
67902;SDS011;54708;43.612;1.568;2023-11-21T06:41:49;8.00;;;1.77;;
67902;SDS011;54708;43.612;1.568;2023-11-21T06:44:15;8.95;;;1.85;;
67902;SDS011;54708;43.612;1.568;2023-11-21T06:46:40;5.45;;;1.70;;
67902;SDS011;54708;43.612;1.568;2023-11-21T06:49:07;7.72;;;2.42;;
67902;SDS011;54708;43.612;1.568;2023-11-21T06:51:33;5.00;;;1.98;;
67902;SDS011;54708;43.612;1.568;2023-11-21T06:53:58;4.80;;;1.88;;
67902;SDS011;54708;43.612;1.568;2023-11-21T06:56:24;8.50;;;2.92;;
67902;SDS011;54708;43.612;1.568;2023-11-21T06:58:49;7.63;;;2.67;;
67902;SDS011;54708;43.612;1.568;2023-11-21T07:01:18;5.70;;;2.00;;
67902;SDS011;54708;43.612;1.568;2023-11-21T07:03:44;7.53;;;2.00;;
67902;SDS011;54708;43.612;1.568;2023-11-21T07:06:10;12.45;;;2.50;;
67902;SDS011;54708;43.612;1.568;2023-11-21T07:08:36;4.55;;;2.20;;
67902;SDS011;54708;43.612;1.568;2023-11-21T07:11:02;7.22;;;1.88;;
67902;SDS011;54708;43.612;1.568;2023-11-21T07:13:28;9.20;;;2.40;;
67902;SDS011;54708;43.612;1.568;2023-11-21T07:15:53;5.05;;;2.30;;
67902;SDS011;54708;43.612;1.568;2023-11-21T07:18:19;9.30;;;2.83;;
67902;SDS011;54708;43.612;1.568;2023-11-21T07:20:44;7.43;;;2.45;;
67902;SDS011;54708;43.612;1.568;2023-11-21T07:23:10;7.45;;;1.92;;
67902;SDS011;54708;43.612;1.568;2023-11-21T07:25:35;5.93;;;2.33;;
67902;SDS011;54708;43.612;1.568;2023-11-21T07:28:01;10.18;;;2.95;;
67902;SDS011;54708;43.612;1.568;2023-11-21T07:30:26;9.35;;;2.70;;
67902;SDS011;54708;43.612;1.568;2023-11-21T07:32:52;5.78;;;2.42;;
67902;SDS011;54708;43.612;1.568;2023-11-21T07:35:17;9.57;;;2.85;;
67902;SDS011;54708;43.612;1.568;2023-11-21T07:37:43;8.13;;;2.97;;
67902;SDS011;54708;43.612;1.568;2023-11-21T07:40:08;6.22;;;2.55;;
67902;SDS011;54708;43.612;1.568;2023-11-21T07:42:34;7.85;;;2.40;;
67902;SDS011;54708;43.612;1.568;2023-11-21T07:45:00;10.73;;;3.58;;
67902;SDS011;54708;43.612;1.568;2023-11-21T07:47:25;7.35;;;2.83;;
67902;SDS011;54708;43.612;1.568;2023-11-21T07:49:52;7.18;;;2.63;;
67902;SDS011;54708;43.612;1.568;2023-11-21T07:52:18;11.68;;;3.05;;
67902;SDS011;54708;43.612;1.568;2023-11-21T07:54:46;11.45;;;3.00;;
67902;SDS011;54708;43.612;1.568;2023-11-21T07:57:11;5.65;;;2.88;;
67902;SDS011;54708;43.612;1.568;2023-11-21T07:59:38;8.60;;;2.55;;
67902;SDS011;54708;43.612;1.568;2023-11-21T08:02:05;7.82;;;2.95;;
67902;SDS011;54708;43.612;1.568;2023-11-21T08:04:31;4.93;;;2.53;;
67902;SDS011;54708;43.612;1.568;2023-11-21T08:06:57;7.72;;;2.97;;
67902;SDS011;54708;43.612;1.568;2023-11-21T08:09:22;7.50;;;3.42;;
67902;SDS011;54708;43.612;1.568;2023-11-21T08:11:48;6.80;;;2.70;;
67902;SDS011;54708;43.612;1.568;2023-11-21T08:14:14;3.65;;;1.90;;
67902;SDS011;54708;43.612;1.568;2023-11-21T08:16:40;2.58;;;1.88;;
67902;SDS011;54708;43.612;1.568;2023-11-21T08:19:05;6.93;;;2.50;;
67902;SDS011;54708;43.612;1.568;2023-11-21T08:21:31;2.63;;;1.70;;
67902;SDS011;54708;43.612;1.568;2023-11-21T08:23:56;4.40;;;1.90;;
67902;SDS011;54708;43.612;1.568;2023-11-21T08:26:22;7.75;;;2.13;;
67902;SDS011;54708;43.612;1.568;2023-11-21T08:28:47;4.90;;;2.03;;
67902;SDS011;54708;43.612;1.568;2023-11-21T08:31:13;5.50;;;1.77;;
67902;SDS011;54708;43.612;1.568;2023-11-21T08:33:38;2.85;;;1.80;;
67902;SDS011;54708;43.612;1.568;2023-11-21T08:36:10;2.90;;;1.63;;
67902;SDS011;54708;43.612;1.568;2023-11-21T08:41:03;3.72;;;1.70;;
67902;SDS011;54708;43.612;1.568;2023-11-21T08:43:32;3.72;;;2.05;;
67902;SDS011;54708;43.612;1.568;2023-11-21T08:45:59;5.20;;;1.85;;
67902;SDS011;54708;43.612;1.568;2023-11-21T08:48:24;1.80;;;1.60;;
67902;SDS011;54708;43.612;1.568;2023-11-21T08:50:50;4.88;;;1.58;;
67902;SDS011;54708;43.612;1.568;2023-11-21T08:53:16;3.08;;;1.42;;
67902;SDS011;54708;43.612;1.568;2023-11-21T08:55:41;4.55;;;1.90;;
67902;SDS011;54708;43.612;1.568;2023-11-21T08:58:09;4.57;;;1.60;;
67902;SDS011;54708;43.612;1.568;2023-11-21T09:00:34;3.53;;;1.83;;
67902;SDS011;54708;43.612;1.568;2023-11-21T09:03:00;4.78;;;1.83;;
67902;SDS011;54708;43.612;1.568;2023-11-21T09:05:27;6.22;;;2.97;;
67902;SDS011;54708;43.612;1.568;2023-11-21T09:07:52;4.65;;;2.17;;
67902;SDS011;54708;43.612;1.568;2023-11-21T09:10:17;6.20;;;2.53;;
67902;SDS011;54708;43.612;1.568;2023-11-21T09:12:43;6.20;;;3.05;;
67902;SDS011;54708;43.612;1.568;2023-11-21T09:15:08;3.10;;;1.65;;
67902;SDS011;54708;43.612;1.568;2023-11-21T09:17:35;9.85;;;2.35;;
67902;SDS011;54708;43.612;1.568;2023-11-21T09:20:00;4.30;;;2.15;;
67902;SDS011;54708;43.612;1.568;2023-11-21T09:22:26;7.95;;;1.90;;
67902;SDS011;54708;43.612;1.568;2023-11-21T09:24:52;2.33;;;1.70;;
67902;SDS011;54708;43.612;1.568;2023-11-21T09:27:17;2.75;;;1.60;;
67902;SDS011;54708;43.612;1.568;2023-11-21T09:29:43;4.68;;;2.72;;
67902;SDS011;54708;43.612;1.568;2023-11-21T09:32:08;5.38;;;2.30;;
67902;SDS011;54708;43.612;1.568;2023-11-21T09:34:37;6.80;;;1.95;;
67902;SDS011;54708;43.612;1.568;2023-11-21T09:37:03;12.85;;;2.28;;
67902;SDS011;54708;43.612;1.568;2023-11-21T09:39:32;2.63;;;1.85;;
67902;SDS011;54708;43.612;1.568;2023-11-21T09:42:10;6.47;;;2.50;;
67902;SDS011;54708;43.612;1.568;2023-11-21T09:44:44;5.10;;;2.17;;
67902;SDS011;54708;43.612;1.568;2023-11-21T09:47:14;6.88;;;1.63;;
67902;SDS011;54708;43.612;1.568;2023-11-21T09:49:41;4.97;;;1.88;;
67902;SDS011;54708;43.612;1.568;2023-11-21T09:52:08;2.90;;;1.73;;
67902;SDS011;54708;43.612;1.568;2023-11-21T09:54:36;6.55;;;1.50;;
67902;SDS011;54708;43.612;1.568;2023-11-21T09:57:01;3.08;;;1.75;;
67902;SDS011;54708;43.612;1.568;2023-11-21T09:59:30;6.95;;;2.28;;
67902;SDS011;54708;43.612;1.568;2023-11-21T10:01:56;6.68;;;2.58;;
67902;SDS011;54708;43.612;1.568;2023-11-21T10:04:23;5.15;;;2.17;;
67902;SDS011;54708;43.612;1.568;2023-11-21T10:06:49;4.03;;;2.05;;
67902;SDS011;54708;43.612;1.568;2023-11-21T10:09:15;4.53;;;2.15;;
67902;SDS011;54708;43.612;1.568;2023-11-21T10:11:41;3.55;;;1.85;;
67902;SDS011;54708;43.612;1.568;2023-11-21T10:14:10;1.92;;;1.63;;
67902;SDS011;54708;43.612;1.568;2023-11-21T10:16:38;5.57;;;1.90;;
67902;SDS011;54708;43.612;1.568;2023-11-21T10:19:04;4.90;;;1.63;;
67902;SDS011;54708;43.612;1.568;2023-11-21T10:21:32;2.55;;;1.83;;
67902;SDS011;54708;43.612;1.568;2023-11-21T10:23:58;6.47;;;1.40;;
67902;SDS011;54708;43.612;1.568;2023-11-21T10:26:24;4.50;;;1.45;;
67902;SDS011;54708;43.612;1.568;2023-11-21T10:28:57;2.08;;;1.60;;
67902;SDS011;54708;43.612;1.568;2023-11-21T10:33:50;4.80;;;1.42;;
67902;SDS011;54708;43.612;1.568;2023-11-21T10:36:27;2.88;;;1.80;;
67902;SDS011;54708;43.612;1.568;2023-11-21T10:38:53;6.13;;;1.70;;
67902;SDS011;54708;43.612;1.568;2023-11-21T10:41:19;1.50;;;1.30;;
67902;SDS011;54708;43.612;1.568;2023-11-21T10:43:48;4.47;;;1.80;;
67902;SDS011;54708;43.612;1.568;2023-11-21T10:46:14;1.52;;;1.23;;
67902;SDS011;54708;43.612;1.568;2023-11-21T10:48:43;1.42;;;1.25;;
67902;SDS011;54708;43.612;1.568;2023-11-21T10:51:08;3.53;;;1.67;;
67902;SDS011;54708;43.612;1.568;2023-11-21T10:53:38;3.63;;;1.58;;
67902;SDS011;54708;43.612;1.568;2023-11-21T10:56:05;3.15;;;1.25;;
67902;SDS011;54708;43.612;1.568;2023-11-21T10:58:32;2.13;;;1.60;;
67902;SDS011;54708;43.612;1.568;2023-11-21T11:00:58;2.83;;;1.20;;
67902;SDS011;54708;43.612;1.568;2023-11-21T11:03:24;3.83;;;1.70;;
67902;SDS011;54708;43.612;1.568;2023-11-21T11:05:50;3.45;;;1.45;;
67902;SDS011;54708;43.612;1.568;2023-11-21T11:08:16;5.53;;;2.35;;
67902;SDS011;54708;43.612;1.568;2023-11-21T11:10:44;5.75;;;1.83;;
67902;SDS011;54708;43.612;1.568;2023-11-21T11:13:12;6.38;;;1.95;;
67902;SDS011;54708;43.612;1.568;2023-11-21T11:15:40;4.47;;;1.83;;
67902;SDS011;54708;43.612;1.568;2023-11-21T11:18:05;3.20;;;1.88;;
67902;SDS011;54708;43.612;1.568;2023-11-21T11:20:35;2.92;;;1.45;;
67902;SDS011;54708;43.612;1.568;2023-11-21T11:28:29;4.07;;;1.85;;
67902;SDS011;54708;43.612;1.568;2023-11-21T11:31:05;3.33;;;1.35;;
67902;SDS011;54708;43.612;1.568;2023-11-21T11:33:58;2.10;;;1.60;;
67902;SDS011;54708;43.612;1.568;2023-11-21T11:36:39;4.07;;;2.20;;
67902;SDS011;54708;43.612;1.568;2023-11-21T11:39:34;5.97;;;2.55;;
67902;SDS011;54708;43.612;1.568;2023-11-21T11:42:08;5.05;;;2.40;;
67902;SDS011;54708;43.612;1.568;2023-11-21T11:47:14;3.28;;;1.67;;
67902;SDS011;54708;43.612;1.568;2023-11-21T11:50:02;8.10;;;1.90;;
67902;SDS011;54708;43.612;1.568;2023-11-21T11:52:33;2.70;;;1.65;;
67902;SDS011;54708;43.612;1.568;2023-11-21T11:57:32;5.47;;;1.50;;
67902;SDS011;54708;43.612;1.568;2023-11-21T12:02:53;1.65;;;1.50;;
67902;SDS011;54708;43.612;1.568;2023-11-21T12:05:21;5.55;;;2.63;;
67902;SDS011;54708;43.612;1.568;2023-11-21T12:07:51;3.42;;;1.88;;
67902;SDS011;54708;43.612;1.568;2023-11-21T12:10:22;2.63;;;1.23;;
67902;SDS011;54708;43.612;1.568;2023-11-21T12:12:55;2.40;;;1.58;;
67902;SDS011;54708;43.612;1.568;2023-11-21T12:15:39;4.93;;;2.00;;
67902;SDS011;54708;43.612;1.568;2023-11-21T12:18:06;3.22;;;1.98;;
67902;SDS011;54708;43.612;1.568;2023-11-21T12:20:32;1.98;;;1.63;;
67902;SDS011;54708;43.612;1.568;2023-11-21T12:23:03;4.60;;;1.73;;
67902;SDS011;54708;43.612;1.568;2023-11-21T12:25:29;3.45;;;1.55;;
67902;SDS011;54708;43.612;1.568;2023-11-21T12:27:59;2.05;;;1.85;;
67902;SDS011;54708;43.612;1.568;2023-11-21T12:30:27;2.45;;;1.40;;
67902;SDS011;54708;43.612;1.568;2023-11-21T12:32:55;2.03;;;1.33;;
67902;SDS011;54708;43.612;1.568;2023-11-21T12:35:22;3.45;;;1.50;;
67902;SDS011;54708;43.612;1.568;2023-11-21T12:37:51;2.90;;;1.90;;
67902;SDS011;54708;43.612;1.568;2023-11-21T12:40:17;3.88;;;2.05;;
67902;SDS011;54708;43.612;1.568;2023-11-21T12:42:43;1.40;;;1.30;;
67902;SDS011;54708;43.612;1.568;2023-11-21T12:47:40;4.10;;;1.73;;
67902;SDS011;54708;43.612;1.568;2023-11-21T12:50:07;3.10;;;1.90;;
67902;SDS011;54708;43.612;1.568;2023-11-21T12:52:39;2.13;;;1.70;;
67902;SDS011;54708;43.612;1.568;2023-11-21T12:55:18;1.58;;;1.40;;
67902;SDS011;54708;43.612;1.568;2023-11-21T12:57:54;1.20;;;1.10;;
67902;SDS011;54708;43.612;1.568;2023-11-21T13:00:27;1.73;;;1.30;;
67902;SDS011;54708;43.612;1.568;2023-11-21T13:02:55;4.45;;;1.40;;
67902;SDS011;54708;43.612;1.568;2023-11-21T13:05:24;1.40;;;1.20;;
67902;SDS011;54708;43.612;1.568;2023-11-21T13:07:58;2.75;;;1.55;;
67902;SDS011;54708;43.612;1.568;2023-11-21T13:10:27;4.97;;;1.67;;
67902;SDS011;54708;43.612;1.568;2023-11-21T13:12:57;3.85;;;1.85;;
67902;SDS011;54708;43.612;1.568;2023-11-21T13:15:27;2.08;;;1.40;;
67902;SDS011;54708;43.612;1.568;2023-11-21T13:17:52;1.88;;;1.77;;
67902;SDS011;54708;43.612;1.568;2023-11-21T13:20:19;3.70;;;2.78;;
67902;SDS011;54708;43.612;1.568;2023-11-21T13:23:07;3.47;;;2.13;;
67902;SDS011;54708;43.612;1.568;2023-11-21T13:25:33;1.70;;;1.30;;
67902;SDS011;54708;43.612;1.568;2023-11-21T13:27:59;2.40;;;1.40;;
67902;SDS011;54708;43.612;1.568;2023-11-21T13:30:25;2.97;;;2.00;;
67902;SDS011;54708;43.612;1.568;2023-11-21T13:32:55;5.85;;;1.63;;
67902;SDS011;54708;43.612;1.568;2023-11-21T13:35:27;2.05;;;1.58;;
67902;SDS011;54708;43.612;1.568;2023-11-21T13:38:02;3.08;;;1.77;;
67902;SDS011;54708;43.612;1.568;2023-11-21T13:40:35;1.75;;;1.48;;
67902;SDS011;54708;43.612;1.568;2023-11-21T13:43:11;2.67;;;1.50;;
67902;SDS011;54708;43.612;1.568;2023-11-21T13:45:39;1.20;;;1.10;;
67902;SDS011;54708;43.612;1.568;2023-11-21T13:48:05;4.68;;;1.70;;
67902;SDS011;54708;43.612;1.568;2023-11-21T13:50:35;4.22;;;1.80;;
67902;SDS011;54708;43.612;1.568;2023-11-21T13:53:01;1.63;;;1.52;;
67902;SDS011;54708;43.612;1.568;2023-11-21T13:55:46;4.63;;;1.70;;
67902;SDS011;54708;43.612;1.568;2023-11-21T13:58:12;3.17;;;2.08;;
67902;SDS011;54708;43.612;1.568;2023-11-21T14:00:43;2.47;;;2.03;;
67902;SDS011;54708;43.612;1.568;2023-11-21T14:03:14;3.70;;;1.77;;
67902;SDS011;54708;43.612;1.568;2023-11-21T14:05:45;4.00;;;2.00;;
67902;SDS011;54708;43.612;1.568;2023-11-21T14:08:19;3.83;;;2.60;;
67902;SDS011;54708;43.612;1.568;2023-11-21T14:10:50;6.43;;;2.63;;
67902;SDS011;54708;43.612;1.568;2023-11-21T14:13:20;4.60;;;2.53;;
67902;SDS011;54708;43.612;1.568;2023-11-21T14:15:48;3.85;;;2.40;;
67902;SDS011;54708;43.612;1.568;2023-11-21T14:18:16;6.68;;;3.10;;
67902;SDS011;54708;43.612;1.568;2023-11-21T14:20:42;5.10;;;2.63;;
67902;SDS011;54708;43.612;1.568;2023-11-21T14:23:09;4.22;;;2.85;;
67902;SDS011;54708;43.612;1.568;2023-11-21T14:25:35;9.43;;;2.67;;
67902;SDS011;54708;43.612;1.568;2023-11-21T14:28:05;4.65;;;2.53;;
67902;SDS011;54708;43.612;1.568;2023-11-21T14:30:31;3.42;;;2.60;;
67902;SDS011;54708;43.612;1.568;2023-11-21T14:32:59;2.88;;;2.40;;
67902;SDS011;54708;43.612;1.568;2023-11-21T14:35:24;7.28;;;2.95;;
67902;SDS011;54708;43.612;1.568;2023-11-21T14:37:51;4.28;;;2.78;;
67902;SDS011;54708;43.612;1.568;2023-11-21T14:40:17;4.07;;;3.08;;
67902;SDS011;54708;43.612;1.568;2023-11-21T14:42:46;3.78;;;2.53;;
67902;SDS011;54708;43.612;1.568;2023-11-21T14:45:12;3.67;;;2.70;;
67902;SDS011;54708;43.612;1.568;2023-11-21T14:47:41;4.05;;;2.30;;
67902;SDS011;54708;43.612;1.568;2023-11-21T14:50:11;6.18;;;2.65;;
67902;SDS011;54708;43.612;1.568;2023-11-21T14:53:10;2.95;;;2.10;;
67902;SDS011;54708;43.612;1.568;2023-11-21T14:55:37;2.50;;;2.22;;
67902;SDS011;54708;43.612;1.568;2023-11-21T14:58:09;6.18;;;2.20;;
67902;SDS011;54708;43.612;1.568;2023-11-21T15:00:39;5.13;;;2.90;;
67902;SDS011;54708;43.612;1.568;2023-11-21T15:03:10;3.90;;;2.20;;
67902;SDS011;54708;43.612;1.568;2023-11-21T15:05:46;7.85;;;2.70;;